sensor_id;sensor_type;location;lat;lon;timestamp;P1;durP1;ratioP1;P2;durP2;ratioP2
16516;SDS011;8371;52.272;9.746;2022-07-05T00:00:07;0.50;;;0.50;;
16516;SDS011;8371;52.272;9.746;2022-07-05T00:02:34;0.93;;;0.40;;
16516;SDS011;8371;52.272;9.746;2022-07-05T00:05:00;0.60;;;0.60;;
16516;SDS011;8371;52.272;9.746;2022-07-05T00:07:25;0.50;;;0.50;;
16516;SDS011;8371;52.272;9.746;2022-07-05T00:09:52;0.67;;;0.67;;
16516;SDS011;8371;52.272;9.746;2022-07-05T00:12:20;0.53;;;0.53;;
16516;SDS011;8371;52.272;9.746;2022-07-05T00:14:47;0.40;;;0.40;;
16516;SDS011;8371;52.272;9.746;2022-07-05T00:17:14;0.50;;;0.50;;
16516;SDS011;8371;52.272;9.746;2022-07-05T00:19:40;1.23;;;0.50;;
16516;SDS011;8371;52.272;9.746;2022-07-05T00:22:06;1.70;;;0.40;;
16516;SDS011;8371;52.272;9.746;2022-07-05T00:24:32;0.53;;;0.53;;
16516;SDS011;8371;52.272;9.746;2022-07-05T00:26:58;0.40;;;0.40;;
16516;SDS011;8371;52.272;9.746;2022-07-05T00:29:24;2.37;;;0.50;;
16516;SDS011;8371;52.272;9.746;2022-07-05T00:31:50;1.20;;;0.93;;
16516;SDS011;8371;52.272;9.746;2022-07-05T00:34:15;0.37;;;0.37;;
16516;SDS011;8371;52.272;9.746;2022-07-05T00:36:41;0.50;;;0.40;;
16516;SDS011;8371;52.272;9.746;2022-07-05T00:39:08;2.73;;;0.60;;
16516;SDS011;8371;52.272;9.746;2022-07-05T00:41:35;0.50;;;0.50;;
16516;SDS011;8371;52.272;9.746;2022-07-05T00:44:02;0.60;;;0.60;;
16516;SDS011;8371;52.272;9.746;2022-07-05T00:46:30;1.03;;;0.70;;
16516;SDS011;8371;52.272;9.746;2022-07-05T00:48:57;0.40;;;0.40;;
16516;SDS011;8371;52.272;9.746;2022-07-05T00:51:24;0.70;;;0.70;;
16516;SDS011;8371;52.272;9.746;2022-07-05T00:53:51;0.57;;;0.57;;
16516;SDS011;8371;52.272;9.746;2022-07-05T00:56:21;1.20;;;0.80;;
16516;SDS011;8371;52.272;9.746;2022-07-05T00:58:45;0.60;;;0.60;;
16516;SDS011;8371;52.272;9.746;2022-07-05T01:01:11;0.60;;;0.60;;
16516;SDS011;8371;52.272;9.746;2022-07-05T01:03:37;0.63;;;0.63;;
16516;SDS011;8371;52.272;9.746;2022-07-05T01:06:05;0.57;;;0.57;;
16516;SDS011;8371;52.272;9.746;2022-07-05T01:08:31;1.03;;;0.40;;
16516;SDS011;8371;52.272;9.746;2022-07-05T01:10:59;0.50;;;0.50;;
16516;SDS011;8371;52.272;9.746;2022-07-05T01:13:24;0.63;;;0.60;;
16516;SDS011;8371;52.272;9.746;2022-07-05T01:15:51;0.57;;;0.57;;
16516;SDS011;8371;52.272;9.746;2022-07-05T01:18:18;0.50;;;0.50;;
16516;SDS011;8371;52.272;9.746;2022-07-05T01:20:47;0.67;;;0.67;;
16516;SDS011;8371;52.272;9.746;2022-07-05T01:23:17;0.60;;;0.40;;
16516;SDS011;8371;52.272;9.746;2022-07-05T01:25:44;0.50;;;0.50;;
16516;SDS011;8371;52.272;9.746;2022-07-05T01:28:11;0.50;;;0.50;;
16516;SDS011;8371;52.272;9.746;2022-07-05T01:30:37;0.40;;;0.40;;
16516;SDS011;8371;52.272;9.746;2022-07-05T01:33:05;0.50;;;0.50;;
16516;SDS011;8371;52.272;9.746;2022-07-05T01:35:32;0.50;;;0.50;;
16516;SDS011;8371;52.272;9.746;2022-07-05T01:37:59;0.60;;;0.60;;
16516;SDS011;8371;52.272;9.746;2022-07-05T01:40:25;0.87;;;0.87;;
16516;SDS011;8371;52.272;9.746;2022-07-05T01:42:51;0.50;;;0.50;;
16516;SDS011;8371;52.272;9.746;2022-07-05T01:45:17;0.63;;;0.60;;
16516;SDS011;8371;52.272;9.746;2022-07-05T01:48:02;1.03;;;0.67;;
16516;SDS011;8371;52.272;9.746;2022-07-05T01:50:31;0.80;;;0.80;;
16516;SDS011;8371;52.272;9.746;2022-07-05T01:53:00;0.57;;;0.57;;
16516;SDS011;8371;52.272;9.746;2022-07-05T01:55:28;0.53;;;0.53;;
16516;SDS011;8371;52.272;9.746;2022-07-05T01:57:54;0.40;;;0.40;;
16516;SDS011;8371;52.272;9.746;2022-07-05T02:00:20;0.40;;;0.40;;
16516;SDS011;8371;52.272;9.746;2022-07-05T02:02:46;0.30;;;0.30;;
16516;SDS011;8371;52.272;9.746;2022-07-05T02:05:12;0.50;;;0.50;;
16516;SDS011;8371;52.272;9.746;2022-07-05T02:07:47;1.33;;;0.60;;
16516;SDS011;8371;52.272;9.746;2022-07-05T02:10:14;0.40;;;0.40;;
16516;SDS011;8371;52.272;9.746;2022-07-05T02:12:39;0.40;;;0.40;;
16516;SDS011;8371;52.272;9.746;2022-07-05T02:15:05;1.20;;;0.40;;
16516;SDS011;8371;52.272;9.746;2022-07-05T02:17:32;0.40;;;0.40;;
16516;SDS011;8371;52.272;9.746;2022-07-05T02:19:57;0.43;;;0.43;;
16516;SDS011;8371;52.272;9.746;2022-07-05T02:22:23;0.40;;;0.40;;
16516;SDS011;8371;52.272;9.746;2022-07-05T02:24:49;0.50;;;0.50;;
16516;SDS011;8371;52.272;9.746;2022-07-05T02:27:15;0.30;;;0.30;;
16516;SDS011;8371;52.272;9.746;2022-07-05T02:29:41;0.30;;;0.30;;
16516;SDS011;8371;52.272;9.746;2022-07-05T02:32:07;0.30;;;0.30;;
16516;SDS011;8371;52.272;9.746;2022-07-05T02:34:32;1.93;;;0.40;;
16516;SDS011;8371;52.272;9.746;2022-07-05T02:36:58;0.30;;;0.30;;
16516;SDS011;8371;52.272;9.746;2022-07-05T02:39:24;0.73;;;0.60;;
16516;SDS011;8371;52.272;9.746;2022-07-05T02:41:50;0.50;;;0.50;;
16516;SDS011;8371;52.272;9.746;2022-07-05T02:44:15;0.50;;;0.50;;
16516;SDS011;8371;52.272;9.746;2022-07-05T02:46:41;0.43;;;0.43;;
16516;SDS011;8371;52.272;9.746;2022-07-05T02:49:06;0.30;;;0.30;;
16516;SDS011;8371;52.272;9.746;2022-07-05T02:51:32;0.60;;;0.60;;
16516;SDS011;8371;52.272;9.746;2022-07-05T02:53:58;0.50;;;0.50;;
16516;SDS011;8371;52.272;9.746;2022-07-05T02:56:23;0.50;;;0.50;;
16516;SDS011;8371;52.272;9.746;2022-07-05T02:58:49;0.50;;;0.50;;
16516;SDS011;8371;52.272;9.746;2022-07-05T03:01:15;0.50;;;0.50;;
16516;SDS011;8371;52.272;9.746;2022-07-05T03:03:41;0.80;;;0.80;;
16516;SDS011;8371;52.272;9.746;2022-07-05T03:06:06;0.50;;;0.50;;
16516;SDS011;8371;52.272;9.746;2022-07-05T03:08:32;0.70;;;0.70;;
16516;SDS011;8371;52.272;9.746;2022-07-05T03:10:58;0.70;;;0.70;;
16516;SDS011;8371;52.272;9.746;2022-07-05T03:13:24;0.70;;;0.70;;
16516;SDS011;8371;52.272;9.746;2022-07-05T03:15:49;0.50;;;0.50;;
16516;SDS011;8371;52.272;9.746;2022-07-05T03:18:15;0.60;;;0.60;;
16516;SDS011;8371;52.272;9.746;2022-07-05T03:20:41;0.47;;;0.47;;
16516;SDS011;8371;52.272;9.746;2022-07-05T03:23:06;0.60;;;0.60;;
16516;SDS011;8371;52.272;9.746;2022-07-05T03:25:32;0.57;;;0.57;;
16516;SDS011;8371;52.272;9.746;2022-07-05T03:27:58;1.47;;;0.63;;
16516;SDS011;8371;52.272;9.746;2022-07-05T03:30:24;0.73;;;0.73;;
16516;SDS011;8371;52.272;9.746;2022-07-05T03:32:49;0.70;;;0.70;;
16516;SDS011;8371;52.272;9.746;2022-07-05T03:35:15;0.50;;;0.50;;
16516;SDS011;8371;52.272;9.746;2022-07-05T03:37:41;0.70;;;0.70;;
16516;SDS011;8371;52.272;9.746;2022-07-05T03:40:09;0.80;;;0.80;;
16516;SDS011;8371;52.272;9.746;2022-07-05T03:42:35;0.60;;;0.60;;
16516;SDS011;8371;52.272;9.746;2022-07-05T03:45:01;0.70;;;0.70;;
16516;SDS011;8371;52.272;9.746;2022-07-05T03:47:28;0.53;;;0.53;;
16516;SDS011;8371;52.272;9.746;2022-07-05T03:49:53;0.50;;;0.50;;
16516;SDS011;8371;52.272;9.746;2022-07-05T03:52:19;1.40;;;0.60;;
16516;SDS011;8371;52.272;9.746;2022-07-05T03:54:45;0.60;;;0.60;;
16516;SDS011;8371;52.272;9.746;2022-07-05T03:57:11;0.53;;;0.50;;
16516;SDS011;8371;52.272;9.746;2022-07-05T03:59:38;0.77;;;0.77;;
16516;SDS011;8371;52.272;9.746;2022-07-05T04:02:04;0.60;;;0.60;;
16516;SDS011;8371;52.272;9.746;2022-07-05T04:04:30;0.67;;;0.67;;
16516;SDS011;8371;52.272;9.746;2022-07-05T04:06:56;0.77;;;0.50;;
16516;SDS011;8371;52.272;9.746;2022-07-05T04:09:21;0.57;;;0.57;;
16516;SDS011;8371;52.272;9.746;2022-07-05T04:11:47;0.80;;;0.80;;
16516;SDS011;8371;52.272;9.746;2022-07-05T04:14:13;0.60;;;0.60;;
16516;SDS011;8371;52.272;9.746;2022-07-05T04:16:38;1.60;;;0.47;;
16516;SDS011;8371;52.272;9.746;2022-07-05T04:19:04;0.80;;;0.80;;
16516;SDS011;8371;52.272;9.746;2022-07-05T04:21:30;0.77;;;0.77;;
16516;SDS011;8371;52.272;9.746;2022-07-05T04:23:55;0.70;;;0.70;;
16516;SDS011;8371;52.272;9.746;2022-07-05T04:26:21;0.70;;;0.70;;
16516;SDS011;8371;52.272;9.746;2022-07-05T04:28:47;0.60;;;0.60;;
16516;SDS011;8371;52.272;9.746;2022-07-05T04:31:12;0.70;;;0.70;;
16516;SDS011;8371;52.272;9.746;2022-07-05T04:33:38;1.37;;;0.93;;
16516;SDS011;8371;52.272;9.746;2022-07-05T04:36:04;0.67;;;0.67;;
16516;SDS011;8371;52.272;9.746;2022-07-05T04:38:30;1.50;;;0.67;;
16516;SDS011;8371;52.272;9.746;2022-07-05T04:40:56;1.83;;;1.00;;
16516;SDS011;8371;52.272;9.746;2022-07-05T04:43:22;1.00;;;1.00;;
16516;SDS011;8371;52.272;9.746;2022-07-05T04:45:47;1.17;;;0.90;;
16516;SDS011;8371;52.272;9.746;2022-07-05T04:48:13;1.10;;;1.10;;
16516;SDS011;8371;52.272;9.746;2022-07-05T04:50:39;0.97;;;0.97;;
16516;SDS011;8371;52.272;9.746;2022-07-05T04:53:04;0.77;;;0.73;;
16516;SDS011;8371;52.272;9.746;2022-07-05T04:55:30;0.53;;;0.53;;
16516;SDS011;8371;52.272;9.746;2022-07-05T04:57:56;0.80;;;0.80;;
16516;SDS011;8371;52.272;9.746;2022-07-05T05:00:21;0.97;;;0.93;;
16516;SDS011;8371;52.272;9.746;2022-07-05T05:02:47;1.50;;;1.03;;
16516;SDS011;8371;52.272;9.746;2022-07-05T05:05:13;0.87;;;0.80;;
16516;SDS011;8371;52.272;9.746;2022-07-05T05:07:42;1.43;;;0.80;;
16516;SDS011;8371;52.272;9.746;2022-07-05T05:10:08;1.23;;;0.80;;
16516;SDS011;8371;52.272;9.746;2022-07-05T05:12:34;1.13;;;1.13;;
16516;SDS011;8371;52.272;9.746;2022-07-05T05:15:00;1.70;;;1.00;;
16516;SDS011;8371;52.272;9.746;2022-07-05T05:17:33;0.80;;;0.80;;
16516;SDS011;8371;52.272;9.746;2022-07-05T05:20:04;1.37;;;1.03;;
16516;SDS011;8371;52.272;9.746;2022-07-05T05:22:38;1.10;;;1.00;;
16516;SDS011;8371;52.272;9.746;2022-07-05T05:25:03;0.87;;;0.87;;
16516;SDS011;8371;52.272;9.746;2022-07-05T05:27:29;1.00;;;1.00;;
16516;SDS011;8371;52.272;9.746;2022-07-05T05:29:55;1.40;;;1.03;;
16516;SDS011;8371;52.272;9.746;2022-07-05T05:32:21;2.90;;;1.03;;
16516;SDS011;8371;52.272;9.746;2022-07-05T05:34:47;1.13;;;0.70;;
16516;SDS011;8371;52.272;9.746;2022-07-05T05:37:12;1.10;;;1.00;;
16516;SDS011;8371;52.272;9.746;2022-07-05T05:39:38;0.80;;;0.80;;
16516;SDS011;8371;52.272;9.746;2022-07-05T05:42:04;1.00;;;1.00;;
16516;SDS011;8371;52.272;9.746;2022-07-05T05:44:30;1.10;;;1.10;;
16516;SDS011;8371;52.272;9.746;2022-07-05T05:46:56;0.83;;;0.83;;
16516;SDS011;8371;52.272;9.746;2022-07-05T05:49:21;2.23;;;1.00;;
16516;SDS011;8371;52.272;9.746;2022-07-05T05:51:47;1.17;;;1.07;;
16516;SDS011;8371;52.272;9.746;2022-07-05T05:54:13;1.13;;;1.03;;
16516;SDS011;8371;52.272;9.746;2022-07-05T05:56:38;1.20;;;0.90;;
16516;SDS011;8371;52.272;9.746;2022-07-05T05:59:04;1.27;;;1.20;;
16516;SDS011;8371;52.272;9.746;2022-07-05T06:01:30;0.80;;;0.80;;
16516;SDS011;8371;52.272;9.746;2022-07-05T06:03:57;1.00;;;0.90;;
16516;SDS011;8371;52.272;9.746;2022-07-05T06:06:22;0.57;;;0.57;;
16516;SDS011;8371;52.272;9.746;2022-07-05T06:08:48;1.17;;;1.07;;
16516;SDS011;8371;52.272;9.746;2022-07-05T06:11:14;2.20;;;1.23;;
16516;SDS011;8371;52.272;9.746;2022-07-05T06:13:39;1.10;;;1.10;;
16516;SDS011;8371;52.272;9.746;2022-07-05T06:16:05;0.60;;;0.60;;
16516;SDS011;8371;52.272;9.746;2022-07-05T06:18:32;0.83;;;0.83;;
16516;SDS011;8371;52.272;9.746;2022-07-05T06:20:57;0.87;;;0.87;;
16516;SDS011;8371;52.272;9.746;2022-07-05T06:23:23;1.03;;;0.80;;
16516;SDS011;8371;52.272;9.746;2022-07-05T06:25:49;1.83;;;0.80;;
16516;SDS011;8371;52.272;9.746;2022-07-05T06:28:14;0.90;;;0.90;;
16516;SDS011;8371;52.272;9.746;2022-07-05T06:30:41;0.60;;;0.60;;
16516;SDS011;8371;52.272;9.746;2022-07-05T06:33:06;2.33;;;0.90;;
16516;SDS011;8371;52.272;9.746;2022-07-05T06:35:32;0.50;;;0.50;;
16516;SDS011;8371;52.272;9.746;2022-07-05T06:37:59;0.67;;;0.57;;
16516;SDS011;8371;52.272;9.746;2022-07-05T06:40:28;0.87;;;0.87;;
16516;SDS011;8371;52.272;9.746;2022-07-05T06:42:56;0.50;;;0.50;;
16516;SDS011;8371;52.272;9.746;2022-07-05T06:45:24;0.53;;;0.53;;
16516;SDS011;8371;52.272;9.746;2022-07-05T06:47:59;0.37;;;0.37;;
16516;SDS011;8371;52.272;9.746;2022-07-05T06:50:22;2.43;;;0.83;;
16516;SDS011;8371;52.272;9.746;2022-07-05T06:52:48;0.97;;;0.40;;
16516;SDS011;8371;52.272;9.746;2022-07-05T06:55:13;0.50;;;0.50;;
16516;SDS011;8371;52.272;9.746;2022-07-05T06:57:39;0.50;;;0.50;;
16516;SDS011;8371;52.272;9.746;2022-07-05T07:00:05;0.50;;;0.50;;
16516;SDS011;8371;52.272;9.746;2022-07-05T07:02:31;1.03;;;0.93;;
16516;SDS011;8371;52.272;9.746;2022-07-05T07:04:57;0.80;;;0.73;;
16516;SDS011;8371;52.272;9.746;2022-07-05T07:07:23;0.70;;;0.70;;
16516;SDS011;8371;52.272;9.746;2022-07-05T07:10:07;0.50;;;0.50;;
16516;SDS011;8371;52.272;9.746;2022-07-05T07:12:33;0.60;;;0.60;;
16516;SDS011;8371;52.272;9.746;2022-07-05T07:14:58;0.70;;;0.70;;
16516;SDS011;8371;52.272;9.746;2022-07-05T07:17:24;0.30;;;0.30;;
16516;SDS011;8371;52.272;9.746;2022-07-05T07:19:50;0.77;;;0.77;;
16516;SDS011;8371;52.272;9.746;2022-07-05T07:22:16;1.17;;;0.40;;
16516;SDS011;8371;52.272;9.746;2022-07-05T07:24:42;0.60;;;0.60;;
16516;SDS011;8371;52.272;9.746;2022-07-05T07:27:07;0.60;;;0.60;;
16516;SDS011;8371;52.272;9.746;2022-07-05T07:29:34;0.50;;;0.50;;
16516;SDS011;8371;52.272;9.746;2022-07-05T07:32:00;2.87;;;0.60;;
16516;SDS011;8371;52.272;9.746;2022-07-05T07:34:28;0.93;;;0.60;;
16516;SDS011;8371;52.272;9.746;2022-07-05T07:36:54;0.50;;;0.50;;
16516;SDS011;8371;52.272;9.746;2022-07-05T07:39:21;0.60;;;0.60;;
16516;SDS011;8371;52.272;9.746;2022-07-05T07:41:48;0.50;;;0.50;;
16516;SDS011;8371;52.272;9.746;2022-07-05T07:44:14;1.47;;;0.50;;
16516;SDS011;8371;52.272;9.746;2022-07-05T07:46:39;0.50;;;0.50;;
16516;SDS011;8371;52.272;9.746;2022-07-05T07:49:06;0.60;;;0.60;;
16516;SDS011;8371;52.272;9.746;2022-07-05T07:51:32;0.50;;;0.50;;
16516;SDS011;8371;52.272;9.746;2022-07-05T07:53:58;0.50;;;0.50;;
16516;SDS011;8371;52.272;9.746;2022-07-05T07:56:24;0.40;;;0.40;;
16516;SDS011;8371;52.272;9.746;2022-07-05T07:58:51;0.50;;;0.50;;
16516;SDS011;8371;52.272;9.746;2022-07-05T08:01:17;0.40;;;0.40;;
16516;SDS011;8371;52.272;9.746;2022-07-05T08:03:43;0.30;;;0.30;;
16516;SDS011;8371;52.272;9.746;2022-07-05T08:06:09;0.33;;;0.33;;
16516;SDS011;8371;52.272;9.746;2022-07-05T08:08:41;0.50;;;0.50;;
16516;SDS011;8371;52.272;9.746;2022-07-05T08:11:04;0.70;;;0.70;;
16516;SDS011;8371;52.272;9.746;2022-07-05T08:13:31;0.60;;;0.60;;
16516;SDS011;8371;52.272;9.746;2022-07-05T08:15:57;0.53;;;0.53;;
16516;SDS011;8371;52.272;9.746;2022-07-05T08:18:23;0.50;;;0.50;;
16516;SDS011;8371;52.272;9.746;2022-07-05T08:21:08;0.70;;;0.70;;
16516;SDS011;8371;52.272;9.746;2022-07-05T08:23:52;0.73;;;0.63;;
16516;SDS011;8371;52.272;9.746;2022-07-05T08:26:18;0.60;;;0.60;;
16516;SDS011;8371;52.272;9.746;2022-07-05T08:28:44;0.50;;;0.50;;
16516;SDS011;8371;52.272;9.746;2022-07-05T08:31:09;0.53;;;0.53;;
16516;SDS011;8371;52.272;9.746;2022-07-05T08:33:35;0.70;;;0.70;;
16516;SDS011;8371;52.272;9.746;2022-07-05T08:36:01;1.73;;;0.50;;
16516;SDS011;8371;52.272;9.746;2022-07-05T08:38:27;0.40;;;0.40;;
16516;SDS011;8371;52.272;9.746;2022-07-05T08:40:54;0.63;;;0.63;;
16516;SDS011;8371;52.272;9.746;2022-07-05T08:43:21;0.47;;;0.47;;
16516;SDS011;8371;52.272;9.746;2022-07-05T08:45:49;0.50;;;0.50;;
16516;SDS011;8371;52.272;9.746;2022-07-05T08:48:16;0.47;;;0.47;;
16516;SDS011;8371;52.272;9.746;2022-07-05T08:50:42;0.53;;;0.53;;
16516;SDS011;8371;52.272;9.746;2022-07-05T08:53:08;0.50;;;0.50;;
16516;SDS011;8371;52.272;9.746;2022-07-05T08:55:35;0.50;;;0.50;;
16516;SDS011;8371;52.272;9.746;2022-07-05T08:58:01;0.43;;;0.43;;
16516;SDS011;8371;52.272;9.746;2022-07-05T09:00:27;0.50;;;0.50;;
16516;SDS011;8371;52.272;9.746;2022-07-05T09:02:53;0.50;;;0.50;;
16516;SDS011;8371;52.272;9.746;2022-07-05T09:05:19;0.57;;;0.57;;
16516;SDS011;8371;52.272;9.746;2022-07-05T09:07:52;0.53;;;0.53;;
16516;SDS011;8371;52.272;9.746;2022-07-05T09:10:17;0.47;;;0.47;;
16516;SDS011;8371;52.272;9.746;2022-07-05T09:12:46;0.40;;;0.40;;
16516;SDS011;8371;52.272;9.746;2022-07-05T09:15:11;0.50;;;0.50;;
16516;SDS011;8371;52.272;9.746;2022-07-05T09:17:44;0.40;;;0.40;;
16516;SDS011;8371;52.272;9.746;2022-07-05T09:20:10;1.07;;;0.50;;
16516;SDS011;8371;52.272;9.746;2022-07-05T09:22:43;0.40;;;0.40;;
16516;SDS011;8371;52.272;9.746;2022-07-05T09:25:14;0.50;;;0.50;;
16516;SDS011;8371;52.272;9.746;2022-07-05T09:27:58;0.40;;;0.40;;
16516;SDS011;8371;52.272;9.746;2022-07-05T09:30:31;0.27;;;0.20;;
16516;SDS011;8371;52.272;9.746;2022-07-05T09:33:10;2.20;;;0.60;;
16516;SDS011;8371;52.272;9.746;2022-07-05T09:35:38;0.50;;;0.50;;
16516;SDS011;8371;52.272;9.746;2022-07-05T09:38:05;0.67;;;0.67;;
16516;SDS011;8371;52.272;9.746;2022-07-05T09:40:32;0.50;;;0.50;;
16516;SDS011;8371;52.272;9.746;2022-07-05T09:43:16;0.40;;;0.40;;
16516;SDS011;8371;52.272;9.746;2022-07-05T09:46:01;1.37;;;0.70;;
16516;SDS011;8371;52.272;9.746;2022-07-05T09:48:24;0.53;;;0.53;;
16516;SDS011;8371;52.272;9.746;2022-07-05T09:50:51;0.40;;;0.40;;
16516;SDS011;8371;52.272;9.746;2022-07-05T09:53:17;0.30;;;0.30;;
16516;SDS011;8371;52.272;9.746;2022-07-05T09:56:00;0.40;;;0.40;;
16516;SDS011;8371;52.272;9.746;2022-07-05T09:58:27;0.43;;;0.43;;
16516;SDS011;8371;52.272;9.746;2022-07-05T10:00:53;0.60;;;0.60;;
16516;SDS011;8371;52.272;9.746;2022-07-05T10:03:19;0.50;;;0.50;;
16516;SDS011;8371;52.272;9.746;2022-07-05T10:05:44;0.30;;;0.30;;
16516;SDS011;8371;52.272;9.746;2022-07-05T10:08:10;0.60;;;0.60;;
16516;SDS011;8371;52.272;9.746;2022-07-05T10:10:38;1.27;;;0.40;;
16516;SDS011;8371;52.272;9.746;2022-07-05T10:13:06;0.60;;;0.60;;
16516;SDS011;8371;52.272;9.746;2022-07-05T10:15:32;0.60;;;0.60;;
16516;SDS011;8371;52.272;9.746;2022-07-05T10:18:05;0.40;;;0.40;;
16516;SDS011;8371;52.272;9.746;2022-07-05T10:20:45;0.43;;;0.43;;
16516;SDS011;8371;52.272;9.746;2022-07-05T10:25:41;0.60;;;0.60;;
16516;SDS011;8371;52.272;9.746;2022-07-05T10:28:09;0.40;;;0.40;;
16516;SDS011;8371;52.272;9.746;2022-07-05T10:30:36;0.60;;;0.60;;
16516;SDS011;8371;52.272;9.746;2022-07-05T10:33:03;0.60;;;0.50;;
16516;SDS011;8371;52.272;9.746;2022-07-05T10:35:30;0.70;;;0.70;;
16516;SDS011;8371;52.272;9.746;2022-07-05T10:37:57;0.60;;;0.60;;
16516;SDS011;8371;52.272;9.746;2022-07-05T10:40:24;0.63;;;0.57;;
16516;SDS011;8371;52.272;9.746;2022-07-05T10:42:54;0.50;;;0.50;;
16516;SDS011;8371;52.272;9.746;2022-07-05T10:45:28;0.50;;;0.50;;
16516;SDS011;8371;52.272;9.746;2022-07-05T10:50:56;0.50;;;0.50;;
16516;SDS011;8371;52.272;9.746;2022-07-05T10:58:40;0.30;;;0.30;;
16516;SDS011;8371;52.272;9.746;2022-07-05T11:03:45;0.57;;;0.40;;
16516;SDS011;8371;52.272;9.746;2022-07-05T11:06:19;0.40;;;0.40;;
16516;SDS011;8371;52.272;9.746;2022-07-05T11:11:34;0.43;;;0.43;;
16516;SDS011;8371;52.272;9.746;2022-07-05T11:14:03;0.43;;;0.43;;
16516;SDS011;8371;52.272;9.746;2022-07-05T11:16:31;0.70;;;0.53;;
16516;SDS011;8371;52.272;9.746;2022-07-05T11:19:08;0.40;;;0.40;;
16516;SDS011;8371;52.272;9.746;2022-07-05T11:21:38;0.40;;;0.40;;
16516;SDS011;8371;52.272;9.746;2022-07-05T11:24:21;0.53;;;0.53;;
16516;SDS011;8371;52.272;9.746;2022-07-05T11:26:49;0.50;;;0.50;;
16516;SDS011;8371;52.272;9.746;2022-07-05T11:32:12;0.37;;;0.37;;
16516;SDS011;8371;52.272;9.746;2022-07-05T11:34:40;0.50;;;0.50;;
16516;SDS011;8371;52.272;9.746;2022-07-05T11:39:44;0.40;;;0.40;;
16516;SDS011;8371;52.272;9.746;2022-07-05T11:42:21;0.30;;;0.30;;
16516;SDS011;8371;52.272;9.746;2022-07-05T11:44:51;0.30;;;0.30;;
16516;SDS011;8371;52.272;9.746;2022-07-05T11:47:20;0.40;;;0.40;;
16516;SDS011;8371;52.272;9.746;2022-07-05T11:49:55;0.60;;;0.60;;
16516;SDS011;8371;52.272;9.746;2022-07-05T11:52:25;0.40;;;0.40;;
16516;SDS011;8371;52.272;9.746;2022-07-05T11:54:52;0.40;;;0.40;;
16516;SDS011;8371;52.272;9.746;2022-07-05T11:57:19;0.30;;;0.30;;
16516;SDS011;8371;52.272;9.746;2022-07-05T11:59:45;0.40;;;0.40;;
16516;SDS011;8371;52.272;9.746;2022-07-05T12:02:11;0.40;;;0.40;;
16516;SDS011;8371;52.272;9.746;2022-07-05T12:04:37;0.30;;;0.30;;
16516;SDS011;8371;52.272;9.746;2022-07-05T12:07:03;0.67;;;0.47;;
16516;SDS011;8371;52.272;9.746;2022-07-05T12:09:29;0.27;;;0.27;;
16516;SDS011;8371;52.272;9.746;2022-07-05T12:11:58;2.03;;;0.63;;
16516;SDS011;8371;52.272;9.746;2022-07-05T12:14:46;0.53;;;0.50;;
16516;SDS011;8371;52.272;9.746;2022-07-05T12:17:14;0.60;;;0.60;;
16516;SDS011;8371;52.272;9.746;2022-07-05T12:19:41;0.77;;;0.50;;
16516;SDS011;8371;52.272;9.746;2022-07-05T12:22:07;0.33;;;0.33;;
16516;SDS011;8371;52.272;9.746;2022-07-05T12:24:33;0.67;;;0.30;;
16516;SDS011;8371;52.272;9.746;2022-07-05T12:27:00;0.53;;;0.53;;
16516;SDS011;8371;52.272;9.746;2022-07-05T12:29:26;1.50;;;0.50;;
16516;SDS011;8371;52.272;9.746;2022-07-05T12:34:28;0.37;;;0.33;;
16516;SDS011;8371;52.272;9.746;2022-07-05T12:36:55;1.30;;;0.57;;
16516;SDS011;8371;52.272;9.746;2022-07-05T12:39:22;0.47;;;0.47;;
16516;SDS011;8371;52.272;9.746;2022-07-05T12:41:48;0.30;;;0.30;;
16516;SDS011;8371;52.272;9.746;2022-07-05T12:44:17;0.50;;;0.50;;
16516;SDS011;8371;52.272;9.746;2022-07-05T12:46:45;0.40;;;0.40;;
16516;SDS011;8371;52.272;9.746;2022-07-05T12:49:11;1.20;;;0.30;;
16516;SDS011;8371;52.272;9.746;2022-07-05T12:51:38;3.00;;;0.43;;
16516;SDS011;8371;52.272;9.746;2022-07-05T12:54:17;0.40;;;0.40;;
16516;SDS011;8371;52.272;9.746;2022-07-05T12:57:05;0.30;;;0.30;;
16516;SDS011;8371;52.272;9.746;2022-07-05T12:59:56;0.40;;;0.40;;
16516;SDS011;8371;52.272;9.746;2022-07-05T13:05:07;0.27;;;0.27;;
16516;SDS011;8371;52.272;9.746;2022-07-05T13:07:40;0.30;;;0.30;;
16516;SDS011;8371;52.272;9.746;2022-07-05T13:10:14;0.53;;;0.50;;
16516;SDS011;8371;52.272;9.746;2022-07-05T13:12:42;0.40;;;0.40;;
16516;SDS011;8371;52.272;9.746;2022-07-05T13:15:08;1.70;;;0.43;;
16516;SDS011;8371;52.272;9.746;2022-07-05T13:17:34;0.40;;;0.40;;
16516;SDS011;8371;52.272;9.746;2022-07-05T13:20:00;0.40;;;0.30;;
16516;SDS011;8371;52.272;9.746;2022-07-05T13:22:27;0.60;;;0.60;;
16516;SDS011;8371;52.272;9.746;2022-07-05T13:24:53;0.33;;;0.33;;
16516;SDS011;8371;52.272;9.746;2022-07-05T13:27:19;0.30;;;0.30;;
16516;SDS011;8371;52.272;9.746;2022-07-05T13:29:45;0.40;;;0.40;;
16516;SDS011;8371;52.272;9.746;2022-07-05T13:32:14;0.40;;;0.40;;
16516;SDS011;8371;52.272;9.746;2022-07-05T13:34:45;0.60;;;0.60;;
16516;SDS011;8371;52.272;9.746;2022-07-05T13:37:11;0.30;;;0.30;;
16516;SDS011;8371;52.272;9.746;2022-07-05T13:39:37;0.40;;;0.40;;
16516;SDS011;8371;52.272;9.746;2022-07-05T13:42:05;0.20;;;0.20;;
16516;SDS011;8371;52.272;9.746;2022-07-05T13:44:31;0.40;;;0.40;;
16516;SDS011;8371;52.272;9.746;2022-07-05T13:46:56;0.50;;;0.50;;
16516;SDS011;8371;52.272;9.746;2022-07-05T13:49:22;0.40;;;0.40;;
16516;SDS011;8371;52.272;9.746;2022-07-05T13:51:48;1.30;;;0.50;;
16516;SDS011;8371;52.272;9.746;2022-07-05T13:54:14;0.40;;;0.40;;
16516;SDS011;8371;52.272;9.746;2022-07-05T13:56:40;4.23;;;0.67;;
16516;SDS011;8371;52.272;9.746;2022-07-05T13:59:06;0.33;;;0.33;;
16516;SDS011;8371;52.272;9.746;2022-07-05T14:01:32;0.27;;;0.27;;
16516;SDS011;8371;52.272;9.746;2022-07-05T14:03:58;0.30;;;0.30;;
16516;SDS011;8371;52.272;9.746;2022-07-05T14:06:27;0.30;;;0.30;;
16516;SDS011;8371;52.272;9.746;2022-07-05T14:08:54;0.33;;;0.33;;
16516;SDS011;8371;52.272;9.746;2022-07-05T14:11:21;0.33;;;0.33;;
16516;SDS011;8371;52.272;9.746;2022-07-05T14:13:47;0.30;;;0.30;;
16516;SDS011;8371;52.272;9.746;2022-07-05T14:16:12;1.73;;;0.60;;
16516;SDS011;8371;52.272;9.746;2022-07-05T14:18:38;0.50;;;0.50;;
16516;SDS011;8371;52.272;9.746;2022-07-05T14:21:04;0.30;;;0.30;;
16516;SDS011;8371;52.272;9.746;2022-07-05T14:23:30;0.40;;;0.40;;
16516;SDS011;8371;52.272;9.746;2022-07-05T14:25:59;0.20;;;0.20;;
16516;SDS011;8371;52.272;9.746;2022-07-05T14:28:26;0.40;;;0.40;;
16516;SDS011;8371;52.272;9.746;2022-07-05T14:30:52;3.03;;;0.80;;
16516;SDS011;8371;52.272;9.746;2022-07-05T14:33:18;0.33;;;0.33;;
16516;SDS011;8371;52.272;9.746;2022-07-05T14:35:43;0.20;;;0.20;;
16516;SDS011;8371;52.272;9.746;2022-07-05T14:38:09;0.30;;;0.30;;
16516;SDS011;8371;52.272;9.746;2022-07-05T14:40:35;0.40;;;0.40;;
16516;SDS011;8371;52.272;9.746;2022-07-05T14:43:01;0.40;;;0.40;;
16516;SDS011;8371;52.272;9.746;2022-07-05T14:48:13;0.33;;;0.30;;
16516;SDS011;8371;52.272;9.746;2022-07-05T14:50:38;0.30;;;0.30;;
16516;SDS011;8371;52.272;9.746;2022-07-05T14:53:04;1.47;;;0.40;;
16516;SDS011;8371;52.272;9.746;2022-07-05T14:55:34;0.30;;;0.30;;
16516;SDS011;8371;52.272;9.746;2022-07-05T14:58:00;0.40;;;0.40;;
16516;SDS011;8371;52.272;9.746;2022-07-05T15:00:26;0.60;;;0.50;;
16516;SDS011;8371;52.272;9.746;2022-07-05T15:02:52;0.30;;;0.30;;
16516;SDS011;8371;52.272;9.746;2022-07-05T15:05:17;0.80;;;0.80;;
16516;SDS011;8371;52.272;9.746;2022-07-05T15:07:43;0.20;;;0.20;;
16516;SDS011;8371;52.272;9.746;2022-07-05T15:10:09;0.20;;;0.20;;
16516;SDS011;8371;52.272;9.746;2022-07-05T15:12:35;0.60;;;0.60;;
16516;SDS011;8371;52.272;9.746;2022-07-05T15:15:00;0.30;;;0.30;;
16516;SDS011;8371;52.272;9.746;2022-07-05T15:17:26;0.70;;;0.43;;
16516;SDS011;8371;52.272;9.746;2022-07-05T15:19:52;0.40;;;0.40;;
16516;SDS011;8371;52.272;9.746;2022-07-05T15:22:17;0.30;;;0.30;;
16516;SDS011;8371;52.272;9.746;2022-07-05T15:24:43;0.37;;;0.37;;
16516;SDS011;8371;52.272;9.746;2022-07-05T15:27:09;0.70;;;0.30;;
16516;SDS011;8371;52.272;9.746;2022-07-05T15:29:35;0.20;;;0.20;;